sensor_id;sensor_type;location;lat;lon;timestamp;P1;durP1;ratioP1;P2;durP2;ratioP2
29218;SDS011;16421;50.202;7.852;2023-04-25T00:00:25;2.20;;;1.58;;
29218;SDS011;16421;50.202;7.852;2023-04-25T00:05:29;3.15;;;1.77;;
29218;SDS011;16421;50.202;7.852;2023-04-25T00:10:32;2.60;;;1.77;;
29218;SDS011;16421;50.202;7.852;2023-04-25T00:15:37;2.38;;;1.90;;
29218;SDS011;16421;50.202;7.852;2023-04-25T00:20:42;2.28;;;1.98;;
29218;SDS011;16421;50.202;7.852;2023-04-25T00:25:48;3.42;;;2.25;;
29218;SDS011;16421;50.202;7.852;2023-04-25T00:30:53;2.47;;;2.25;;
29218;SDS011;16421;50.202;7.852;2023-04-25T00:35:57;2.22;;;1.67;;
29218;SDS011;16421;50.202;7.852;2023-04-25T00:41:00;2.58;;;1.80;;
29218;SDS011;16421;50.202;7.852;2023-04-25T00:46:05;1.85;;;1.70;;
29218;SDS011;16421;50.202;7.852;2023-04-25T00:51:09;2.40;;;1.75;;
29218;SDS011;16421;50.202;7.852;2023-04-25T00:56:19;2.45;;;1.90;;
29218;SDS011;16421;50.202;7.852;2023-04-25T01:01:24;3.00;;;1.73;;
29218;SDS011;16421;50.202;7.852;2023-04-25T01:06:28;2.53;;;2.10;;
29218;SDS011;16421;50.202;7.852;2023-04-25T01:11:32;3.20;;;2.30;;
29218;SDS011;16421;50.202;7.852;2023-04-25T01:16:37;2.08;;;1.73;;
29218;SDS011;16421;50.202;7.852;2023-04-25T01:21:42;2.22;;;1.85;;
29218;SDS011;16421;50.202;7.852;2023-04-25T01:26:46;2.77;;;1.80;;
29218;SDS011;16421;50.202;7.852;2023-04-25T01:31:56;2.30;;;1.90;;
29218;SDS011;16421;50.202;7.852;2023-04-25T01:37:02;2.55;;;2.15;;
29218;SDS011;16421;50.202;7.852;2023-04-25T01:42:08;4.70;;;2.05;;
29218;SDS011;16421;50.202;7.852;2023-04-25T01:47:51;2.90;;;1.90;;
29218;SDS011;16421;50.202;7.852;2023-04-25T01:52:56;3.03;;;2.08;;
29218;SDS011;16421;50.202;7.852;2023-04-25T01:58:00;5.10;;;1.90;;
29218;SDS011;16421;50.202;7.852;2023-04-25T02:03:25;4.47;;;1.87;;
29218;SDS011;16421;50.202;7.852;2023-04-25T02:08:31;2.25;;;2.03;;
29218;SDS011;16421;50.202;7.852;2023-04-25T02:13:34;2.42;;;2.03;;
29218;SDS011;16421;50.202;7.852;2023-04-25T02:18:49;2.55;;;2.08;;
29218;SDS011;16421;50.202;7.852;2023-04-25T02:23:55;4.45;;;2.10;;
29218;SDS011;16421;50.202;7.852;2023-04-25T02:28:59;4.25;;;2.40;;
29218;SDS011;16421;50.202;7.852;2023-04-25T02:34:02;3.00;;;1.95;;
29218;SDS011;16421;50.202;7.852;2023-04-25T02:39:10;2.85;;;2.28;;
29218;SDS011;16421;50.202;7.852;2023-04-25T02:44:14;3.55;;;2.05;;
29218;SDS011;16421;50.202;7.852;2023-04-25T02:49:19;2.90;;;2.03;;
29218;SDS011;16421;50.202;7.852;2023-04-25T02:54:23;3.13;;;2.30;;
29218;SDS011;16421;50.202;7.852;2023-04-25T02:59:28;3.15;;;2.00;;
29218;SDS011;16421;50.202;7.852;2023-04-25T03:04:33;2.55;;;2.15;;
29218;SDS011;16421;50.202;7.852;2023-04-25T03:09:38;2.65;;;2.03;;
29218;SDS011;16421;50.202;7.852;2023-04-25T03:14:42;2.42;;;1.88;;
29218;SDS011;16421;50.202;7.852;2023-04-25T03:19:45;4.28;;;2.30;;
29218;SDS011;16421;50.202;7.852;2023-04-25T03:24:50;3.35;;;2.20;;
29218;SDS011;16421;50.202;7.852;2023-04-25T03:29:54;3.40;;;2.40;;
29218;SDS011;16421;50.202;7.852;2023-04-25T03:34:58;3.15;;;2.25;;
29218;SDS011;16421;50.202;7.852;2023-04-25T03:40:06;3.63;;;2.60;;
29218;SDS011;16421;50.202;7.852;2023-04-25T03:45:33;3.38;;;2.50;;
29218;SDS011;16421;50.202;7.852;2023-04-25T03:50:37;3.20;;;2.35;;
29218;SDS011;16421;50.202;7.852;2023-04-25T03:55:42;2.90;;;1.85;;
29218;SDS011;16421;50.202;7.852;2023-04-25T04:00:47;4.05;;;2.22;;
29218;SDS011;16421;50.202;7.852;2023-04-25T04:05:51;3.00;;;2.13;;
29218;SDS011;16421;50.202;7.852;2023-04-25T04:10:56;3.88;;;2.25;;
29218;SDS011;16421;50.202;7.852;2023-04-25T04:16:01;3.95;;;2.17;;
29218;SDS011;16421;50.202;7.852;2023-04-25T04:21:05;3.22;;;2.00;;
29218;SDS011;16421;50.202;7.852;2023-04-25T04:26:14;4.50;;;1.88;;
29218;SDS011;16421;50.202;7.852;2023-04-25T04:31:31;3.65;;;1.98;;
29218;SDS011;16421;50.202;7.852;2023-04-25T04:36:35;3.33;;;2.00;;
29218;SDS011;16421;50.202;7.852;2023-04-25T04:41:40;3.33;;;2.00;;
29218;SDS011;16421;50.202;7.852;2023-04-25T04:46:48;6.93;;;2.35;;
29218;SDS011;16421;50.202;7.852;2023-04-25T04:52:20;5.18;;;1.80;;
29218;SDS011;16421;50.202;7.852;2023-04-25T04:57:28;3.60;;;1.73;;
29218;SDS011;16421;50.202;7.852;2023-04-25T05:02:51;4.03;;;1.80;;
29218;SDS011;16421;50.202;7.852;2023-04-25T05:08:13;4.03;;;1.83;;
29218;SDS011;16421;50.202;7.852;2023-04-25T05:13:35;2.60;;;1.40;;
29218;SDS011;16421;50.202;7.852;2023-04-25T05:18:49;3.22;;;1.48;;
29218;SDS011;16421;50.202;7.852;2023-04-25T05:24:07;4.38;;;1.98;;
29218;SDS011;16421;50.202;7.852;2023-04-25T05:29:31;5.88;;;2.90;;
29218;SDS011;16421;50.202;7.852;2023-04-25T05:34:40;3.38;;;2.05;;
29218;SDS011;16421;50.202;7.852;2023-04-25T05:39:54;5.97;;;2.70;;
29218;SDS011;16421;50.202;7.852;2023-04-25T05:45:11;5.28;;;2.67;;
29218;SDS011;16421;50.202;7.852;2023-04-25T05:50:29;7.15;;;3.40;;
29218;SDS011;16421;50.202;7.852;2023-04-25T05:55:44;8.88;;;4.05;;
29218;SDS011;16421;50.202;7.852;2023-04-25T06:01:02;11.13;;;4.85;;
29218;SDS011;16421;50.202;7.852;2023-04-25T06:11:32;8.13;;;3.28;;
29218;SDS011;16421;50.202;7.852;2023-04-25T06:16:38;4.93;;;3.08;;
29218;SDS011;16421;50.202;7.852;2023-04-25T06:21:42;4.22;;;2.25;;
29218;SDS011;16421;50.202;7.852;2023-04-25T06:26:46;3.85;;;2.03;;
29218;SDS011;16421;50.202;7.852;2023-04-25T06:31:52;8.00;;;2.60;;
29218;SDS011;16421;50.202;7.852;2023-04-25T06:36:56;7.43;;;3.43;;
29218;SDS011;16421;50.202;7.852;2023-04-25T06:41:59;3.83;;;2.38;;
29218;SDS011;16421;50.202;7.852;2023-04-25T06:52:42;5.50;;;2.60;;
29218;SDS011;16421;50.202;7.852;2023-04-25T06:57:45;7.78;;;4.72;;
29218;SDS011;16421;50.202;7.852;2023-04-25T07:03:13;8.07;;;3.25;;
29218;SDS011;16421;50.202;7.852;2023-04-25T07:08:17;4.53;;;2.08;;
29218;SDS011;16421;50.202;7.852;2023-04-25T07:13:22;5.53;;;2.75;;
29218;SDS011;16421;50.202;7.852;2023-04-25T07:18:27;4.95;;;2.47;;
29218;SDS011;16421;50.202;7.852;2023-04-25T07:28:42;7.10;;;2.78;;
29218;SDS011;16421;50.202;7.852;2023-04-25T07:33:47;4.78;;;2.58;;
29218;SDS011;16421;50.202;7.852;2023-04-25T07:38:50;6.22;;;2.30;;
29218;SDS011;16421;50.202;7.852;2023-04-25T07:44:00;3.22;;;2.03;;
29218;SDS011;16421;50.202;7.852;2023-04-25T07:49:06;4.75;;;1.90;;
29218;SDS011;16421;50.202;7.852;2023-04-25T07:54:12;7.72;;;3.00;;
29218;SDS011;16421;50.202;7.852;2023-04-25T07:59:22;6.38;;;2.63;;
29218;SDS011;16421;50.202;7.852;2023-04-25T08:04:32;6.32;;;2.58;;
29218;SDS011;16421;50.202;7.852;2023-04-25T08:09:38;5.05;;;2.92;;
29218;SDS011;16421;50.202;7.852;2023-04-25T08:14:48;4.18;;;2.20;;
29218;SDS011;16421;50.202;7.852;2023-04-25T08:20:10;6.38;;;3.47;;
29218;SDS011;16421;50.202;7.852;2023-04-25T08:25:15;7.40;;;2.70;;
29218;SDS011;16421;50.202;7.852;2023-04-25T08:30:18;5.18;;;2.75;;
29218;SDS011;16421;50.202;7.852;2023-04-25T08:35:23;7.57;;;2.78;;
29218;SDS011;16421;50.202;7.852;2023-04-25T08:40:27;4.22;;;2.72;;
29218;SDS011;16421;50.202;7.852;2023-04-25T08:45:38;5.68;;;2.08;;
29218;SDS011;16421;50.202;7.852;2023-04-25T08:50:49;2.70;;;1.85;;
29218;SDS011;16421;50.202;7.852;2023-04-25T08:55:55;4.57;;;2.15;;
29218;SDS011;16421;50.202;7.852;2023-04-25T09:00:59;7.97;;;3.20;;
29218;SDS011;16421;50.202;7.852;2023-04-25T09:06:09;6.43;;;3.10;;
29218;SDS011;16421;50.202;7.852;2023-04-25T09:11:13;4.25;;;2.83;;
29218;SDS011;16421;50.202;7.852;2023-04-25T09:16:17;7.65;;;3.55;;
29218;SDS011;16421;50.202;7.852;2023-04-25T09:21:43;5.28;;;2.60;;
29218;SDS011;16421;50.202;7.852;2023-04-25T09:26:48;7.43;;;3.00;;
29218;SDS011;16421;50.202;7.852;2023-04-25T09:31:53;8.27;;;3.40;;
29218;SDS011;16421;50.202;7.852;2023-04-25T09:37:16;7.28;;;2.88;;
29218;SDS011;16421;50.202;7.852;2023-04-25T09:42:41;5.22;;;2.47;;
29218;SDS011;16421;50.202;7.852;2023-04-25T09:47:44;9.27;;;2.65;;
29218;SDS011;16421;50.202;7.852;2023-04-25T09:53:03;4.93;;;1.70;;
29218;SDS011;16421;50.202;7.852;2023-04-25T09:58:33;5.78;;;2.38;;
29218;SDS011;16421;50.202;7.852;2023-04-25T10:03:38;6.72;;;2.28;;
29218;SDS011;16421;50.202;7.852;2023-04-25T10:09:11;5.72;;;2.05;;
29218;SDS011;16421;50.202;7.852;2023-04-25T10:14:15;6.73;;;2.37;;
29218;SDS011;16421;50.202;7.852;2023-04-25T10:19:19;5.47;;;2.10;;
29218;SDS011;16421;50.202;7.852;2023-04-25T10:24:24;7.32;;;2.90;;
29218;SDS011;16421;50.202;7.852;2023-04-25T10:29:28;6.77;;;2.53;;
29218;SDS011;16421;50.202;7.852;2023-04-25T10:34:38;4.10;;;1.50;;
29218;SDS011;16421;50.202;7.852;2023-04-25T10:39:44;6.53;;;2.60;;
29218;SDS011;16421;50.202;7.852;2023-04-25T10:45:00;4.68;;;2.00;;
29218;SDS011;16421;50.202;7.852;2023-04-25T10:50:07;4.70;;;2.20;;
29218;SDS011;16421;50.202;7.852;2023-04-25T10:55:12;5.45;;;2.20;;
29218;SDS011;16421;50.202;7.852;2023-04-25T11:00:16;5.57;;;1.60;;
29218;SDS011;16421;50.202;7.852;2023-04-25T11:05:23;5.10;;;1.60;;
29218;SDS011;16421;50.202;7.852;2023-04-25T11:10:34;5.38;;;1.83;;
29218;SDS011;16421;50.202;7.852;2023-04-25T11:15:37;5.63;;;2.10;;
29218;SDS011;16421;50.202;7.852;2023-04-25T11:20:41;3.78;;;1.50;;
29218;SDS011;16421;50.202;7.852;2023-04-25T11:25:47;7.53;;;2.22;;
29218;SDS011;16421;50.202;7.852;2023-04-25T11:30:52;3.95;;;1.80;;
29218;SDS011;16421;50.202;7.852;2023-04-25T11:35:56;3.90;;;2.15;;
29218;SDS011;16421;50.202;7.852;2023-04-25T11:41:01;2.92;;;1.38;;
29218;SDS011;16421;50.202;7.852;2023-04-25T11:46:06;2.40;;;1.40;;
29218;SDS011;16421;50.202;7.852;2023-04-25T11:51:10;3.60;;;1.50;;
29218;SDS011;16421;50.202;7.852;2023-04-25T11:56:14;4.18;;;1.63;;
29218;SDS011;16421;50.202;7.852;2023-04-25T12:01:29;3.92;;;1.73;;
29218;SDS011;16421;50.202;7.852;2023-04-25T12:06:33;7.45;;;2.40;;
29218;SDS011;16421;50.202;7.852;2023-04-25T12:11:42;5.43;;;1.83;;
29218;SDS011;16421;50.202;7.852;2023-04-25T12:16:47;6.00;;;1.90;;
29218;SDS011;16421;50.202;7.852;2023-04-25T12:21:52;3.40;;;1.20;;
29218;SDS011;16421;50.202;7.852;2023-04-25T12:32:03;3.85;;;1.58;;
29218;SDS011;16421;50.202;7.852;2023-04-25T12:37:07;6.82;;;2.08;;
29218;SDS011;16421;50.202;7.852;2023-04-25T12:42:12;4.60;;;1.70;;
29218;SDS011;16421;50.202;7.852;2023-04-25T12:47:15;6.82;;;2.33;;
29218;SDS011;16421;50.202;7.852;2023-04-25T12:52:18;5.20;;;1.40;;
29218;SDS011;16421;50.202;7.852;2023-04-25T12:57:23;2.03;;;1.08;;
29218;SDS011;16421;50.202;7.852;2023-04-25T13:02:27;8.15;;;2.40;;
29218;SDS011;16421;50.202;7.852;2023-04-25T13:07:30;4.07;;;1.40;;
29218;SDS011;16421;50.202;7.852;2023-04-25T13:12:36;4.35;;;1.63;;
29218;SDS011;16421;50.202;7.852;2023-04-25T13:17:39;2.78;;;1.23;;
29218;SDS011;16421;50.202;7.852;2023-04-25T13:22:43;4.95;;;1.42;;
29218;SDS011;16421;50.202;7.852;2023-04-25T13:27:48;5.88;;;1.42;;
29218;SDS011;16421;50.202;7.852;2023-04-25T13:32:51;7.75;;;2.63;;
29218;SDS011;16421;50.202;7.852;2023-04-25T13:37:57;3.50;;;1.30;;
29218;SDS011;16421;50.202;7.852;2023-04-25T13:43:02;2.28;;;1.15;;
29218;SDS011;16421;50.202;7.852;2023-04-25T13:48:11;4.13;;;1.52;;
29218;SDS011;16421;50.202;7.852;2023-04-25T13:53:14;3.75;;;1.67;;
29218;SDS011;16421;50.202;7.852;2023-04-25T13:58:20;6.65;;;2.00;;
29218;SDS011;16421;50.202;7.852;2023-04-25T14:03:23;5.37;;;1.70;;
29218;SDS011;16421;50.202;7.852;2023-04-25T14:08:28;4.13;;;1.98;;
29218;SDS011;16421;50.202;7.852;2023-04-25T14:13:33;5.65;;;1.75;;
29218;SDS011;16421;50.202;7.852;2023-04-25T14:18:36;5.57;;;1.40;;
29218;SDS011;16421;50.202;7.852;2023-04-25T14:23:40;3.58;;;1.40;;
29218;SDS011;16421;50.202;7.852;2023-04-25T14:28:45;3.22;;;1.42;;
29218;SDS011;16421;50.202;7.852;2023-04-25T14:33:48;3.60;;;1.20;;
29218;SDS011;16421;50.202;7.852;2023-04-25T14:38:53;2.63;;;1.00;;
29218;SDS011;16421;50.202;7.852;2023-04-25T14:44:04;5.50;;;1.63;;
29218;SDS011;16421;50.202;7.852;2023-04-25T14:49:07;4.60;;;1.50;;
29218;SDS011;16421;50.202;7.852;2023-04-25T14:54:11;3.20;;;1.30;;
29218;SDS011;16421;50.202;7.852;2023-04-25T14:59:16;3.13;;;1.10;;
29218;SDS011;16421;50.202;7.852;2023-04-25T15:04:21;3.05;;;1.20;;
29218;SDS011;16421;50.202;7.852;2023-04-25T15:09:24;5.68;;;1.58;;
29218;SDS011;16421;50.202;7.852;2023-04-25T15:14:29;3.72;;;1.85;;
29218;SDS011;16421;50.202;7.852;2023-04-25T15:19:32;3.70;;;1.60;;
29218;SDS011;16421;50.202;7.852;2023-04-25T15:24:39;5.28;;;1.98;;
29218;SDS011;16421;50.202;7.852;2023-04-25T15:29:43;4.53;;;1.67;;
29218;SDS011;16421;50.202;7.852;2023-04-25T15:34:47;3.63;;;1.38;;
29218;SDS011;16421;50.202;7.852;2023-04-25T15:39:52;5.70;;;1.73;;
29218;SDS011;16421;50.202;7.852;2023-04-25T15:45:07;6.60;;;1.10;;
29218;SDS011;16421;50.202;7.852;2023-04-25T15:50:12;4.63;;;1.55;;
29218;SDS011;16421;50.202;7.852;2023-04-25T15:55:17;3.92;;;1.42;;
29218;SDS011;16421;50.202;7.852;2023-04-25T16:00:24;4.78;;;1.02;;
29218;SDS011;16421;50.202;7.852;2023-04-25T16:05:28;3.35;;;1.30;;
29218;SDS011;16421;50.202;7.852;2023-04-25T16:10:31;4.70;;;1.90;;
29218;SDS011;16421;50.202;7.852;2023-04-25T16:15:36;2.55;;;1.35;;
29218;SDS011;16421;50.202;7.852;2023-04-25T16:20:40;4.25;;;1.50;;
29218;SDS011;16421;50.202;7.852;2023-04-25T16:25:44;4.43;;;1.77;;
29218;SDS011;16421;50.202;7.852;2023-04-25T16:30:49;4.88;;;2.13;;
29218;SDS011;16421;50.202;7.852;2023-04-25T16:35:52;2.95;;;1.20;;
29218;SDS011;16421;50.202;7.852;2023-04-25T16:41:04;3.92;;;1.50;;
29218;SDS011;16421;50.202;7.852;2023-04-25T16:46:10;3.83;;;1.65;;
29218;SDS011;16421;50.202;7.852;2023-04-25T16:51:14;5.13;;;1.45;;
29218;SDS011;16421;50.202;7.852;2023-04-25T16:56:20;2.88;;;0.93;;
29218;SDS011;16421;50.202;7.852;2023-04-25T17:07:01;3.07;;;1.30;;
29218;SDS011;16421;50.202;7.852;2023-04-25T17:12:04;2.72;;;1.15;;
29218;SDS011;16421;50.202;7.852;2023-04-25T17:17:09;3.38;;;1.23;;
29218;SDS011;16421;50.202;7.852;2023-04-25T17:22:13;2.28;;;0.90;;
29218;SDS011;16421;50.202;7.852;2023-04-25T17:27:16;2.47;;;1.00;;
29218;SDS011;16421;50.202;7.852;2023-04-25T17:32:21;2.53;;;1.10;;
29218;SDS011;16421;50.202;7.852;2023-04-25T17:37:25;3.65;;;1.20;;
29218;SDS011;16421;50.202;7.852;2023-04-25T17:42:29;2.90;;;1.25;;
29218;SDS011;16421;50.202;7.852;2023-04-25T17:47:34;2.92;;;1.50;;
29218;SDS011;16421;50.202;7.852;2023-04-25T17:52:37;3.22;;;1.55;;
29218;SDS011;16421;50.202;7.852;2023-04-25T17:57:41;4.32;;;1.50;;
29218;SDS011;16421;50.202;7.852;2023-04-25T18:02:46;3.10;;;1.30;;
29218;SDS011;16421;50.202;7.852;2023-04-25T18:07:51;1.58;;;0.93;;
29218;SDS011;16421;50.202;7.852;2023-04-25T18:12:55;2.15;;;0.85;;
29218;SDS011;16421;50.202;7.852;2023-04-25T18:18:00;2.33;;;0.90;;
29218;SDS011;16421;50.202;7.852;2023-04-25T18:23:11;1.77;;;1.17;;
29218;SDS011;16421;50.202;7.852;2023-04-25T18:28:17;1.05;;;0.82;;
29218;SDS011;16421;50.202;7.852;2023-04-25T18:33:23;3.50;;;1.30;;
29218;SDS011;16421;50.202;7.852;2023-04-25T18:38:27;2.30;;;1.00;;
29218;SDS011;16421;50.202;7.852;2023-04-25T18:43:44;2.35;;;1.27;;
29218;SDS011;16421;50.202;7.852;2023-04-25T18:48:51;3.17;;;0.98;;
29218;SDS011;16421;50.202;7.852;2023-04-25T18:53:58;4.35;;;0.98;;
29218;SDS011;16421;50.202;7.852;2023-04-25T18:59:08;2.10;;;1.00;;
29218;SDS011;16421;50.202;7.852;2023-04-25T19:04:13;2.10;;;0.80;;
29218;SDS011;16421;50.202;7.852;2023-04-25T19:09:21;2.17;;;0.93;;
29218;SDS011;16421;50.202;7.852;2023-04-25T19:14:25;2.40;;;0.98;;
29218;SDS011;16421;50.202;7.852;2023-04-25T19:19:40;1.85;;;0.88;;
29218;SDS011;16421;50.202;7.852;2023-04-25T19:24:45;3.55;;;1.15;;
29218;SDS011;16421;50.202;7.852;2023-04-25T19:29:53;3.30;;;1.00;;
29218;SDS011;16421;50.202;7.852;2023-04-25T19:35:12;1.55;;;1.10;;
29218;SDS011;16421;50.202;7.852;2023-04-25T19:40:16;2.38;;;0.82;;
29218;SDS011;16421;50.202;7.852;2023-04-25T19:45:26;2.45;;;0.80;;
29218;SDS011;16421;50.202;7.852;2023-04-25T19:50:32;2.97;;;1.30;;
29218;SDS011;16421;50.202;7.852;2023-04-25T19:55:38;1.23;;;1.02;;
29218;SDS011;16421;50.202;7.852;2023-04-25T20:00:42;2.65;;;0.90;;
29218;SDS011;16421;50.202;7.852;2023-04-25T20:05:47;1.52;;;1.05;;
29218;SDS011;16421;50.202;7.852;2023-04-25T20:10:51;1.35;;;1.20;;
29218;SDS011;16421;50.202;7.852;2023-04-25T20:15:54;2.10;;;1.17;;
29218;SDS011;16421;50.202;7.852;2023-04-25T20:21:01;2.17;;;1.73;;
29218;SDS011;16421;50.202;7.852;2023-04-25T20:26:04;3.80;;;2.20;;
29218;SDS011;16421;50.202;7.852;2023-04-25T20:31:09;5.75;;;2.10;;
29218;SDS011;16421;50.202;7.852;2023-04-25T20:36:14;3.65;;;1.90;;
29218;SDS011;16421;50.202;7.852;2023-04-25T20:41:17;3.03;;;1.35;;
29218;SDS011;16421;50.202;7.852;2023-04-25T20:46:21;3.53;;;1.85;;
29218;SDS011;16421;50.202;7.852;2023-04-25T20:51:26;4.00;;;1.70;;
29218;SDS011;16421;50.202;7.852;2023-04-25T20:56:30;3.10;;;1.87;;
29218;SDS011;16421;50.202;7.852;2023-04-25T21:01:34;4.25;;;1.70;;
29218;SDS011;16421;50.202;7.852;2023-04-25T21:06:38;1.85;;;1.30;;
29218;SDS011;16421;50.202;7.852;2023-04-25T21:11:42;4.70;;;1.85;;
29218;SDS011;16421;50.202;7.852;2023-04-25T21:16:46;3.03;;;1.40;;
29218;SDS011;16421;50.202;7.852;2023-04-25T21:21:51;4.40;;;2.22;;
29218;SDS011;16421;50.202;7.852;2023-04-25T21:26:54;4.03;;;2.10;;
29218;SDS011;16421;50.202;7.852;2023-04-25T21:31:58;3.28;;;2.10;;
29218;SDS011;16421;50.202;7.852;2023-04-25T21:37:02;5.63;;;2.33;;
29218;SDS011;16421;50.202;7.852;2023-04-25T21:42:08;5.80;;;2.50;;
29218;SDS011;16421;50.202;7.852;2023-04-25T21:47:11;4.55;;;2.58;;
29218;SDS011;16421;50.202;7.852;2023-04-25T21:52:16;4.47;;;2.60;;
29218;SDS011;16421;50.202;7.852;2023-04-25T21:57:20;6.20;;;2.05;;
29218;SDS011;16421;50.202;7.852;2023-04-25T22:02:23;5.35;;;2.22;;
29218;SDS011;16421;50.202;7.852;2023-04-25T22:07:29;2.92;;;1.90;;
29218;SDS011;16421;50.202;7.852;2023-04-25T22:12:32;4.25;;;2.05;;
29218;SDS011;16421;50.202;7.852;2023-04-25T22:17:36;3.65;;;2.30;;
29218;SDS011;16421;50.202;7.852;2023-04-25T22:22:42;4.32;;;2.22;;
29218;SDS011;16421;50.202;7.852;2023-04-25T22:27:45;4.13;;;2.63;;
29218;SDS011;16421;50.202;7.852;2023-04-25T22:32:49;3.35;;;2.33;;
29218;SDS011;16421;50.202;7.852;2023-04-25T22:37:54;4.32;;;1.90;;
29218;SDS011;16421;50.202;7.852;2023-04-25T22:42:58;5.18;;;1.80;;
29218;SDS011;16421;50.202;7.852;2023-04-25T22:48:01;2.85;;;1.65;;
29218;SDS011;16421;50.202;7.852;2023-04-25T22:53:07;3.22;;;1.67;;
29218;SDS011;16421;50.202;7.852;2023-04-25T23:03:15;2.78;;;1.55;;
29218;SDS011;16421;50.202;7.852;2023-04-25T23:08:21;2.95;;;1.55;;
29218;SDS011;16421;50.202;7.852;2023-04-25T23:13:24;3.67;;;1.70;;
29218;SDS011;16421;50.202;7.852;2023-04-25T23:18:28;2.85;;;1.90;;
29218;SDS011;16421;50.202;7.852;2023-04-25T23:23:34;3.03;;;1.58;;
29218;SDS011;16421;50.202;7.852;2023-04-25T23:28:38;2.78;;;1.63;;
29218;SDS011;16421;50.202;7.852;2023-04-25T23:33:42;2.13;;;1.50;;
29218;SDS011;16421;50.202;7.852;2023-04-25T23:38:47;2.65;;;1.77;;
29218;SDS011;16421;50.202;7.852;2023-04-25T23:43:50;3.45;;;1.83;;
29218;SDS011;16421;50.202;7.852;2023-04-25T23:48:54;3.33;;;1.70;;
29218;SDS011;16421;50.202;7.852;2023-04-25T23:54:00;2.47;;;1.48;;
29218;SDS011;16421;50.202;7.852;2023-04-25T23:59:05;2.83;;;1.70;;
